createdAt,value
2024-05-09T00:04:49.662Z,5.88
2024-05-09T00:09:49.876Z,5.07
2024-05-09T00:14:49.930Z,4.82
2024-05-09T00:19:52.654Z,5.90
2024-05-09T00:24:52.725Z,5.45
2024-05-09T00:29:52.834Z,5.72
2024-05-09T00:34:55.553Z,5.30
2024-05-09T00:39:55.732Z,5.15
2024-05-09T00:44:55.795Z,4.80
2024-05-09T00:49:58.574Z,6.10
2024-05-09T00:54:59.305Z,5.95
2024-05-09T00:59:59.580Z,5.88
2024-05-09T01:05:02.580Z,6.00
2024-05-09T01:10:03.232Z,7.22
2024-05-09T01:15:04.303Z,5.68
2024-05-09T01:20:10.655Z,6.85
2024-05-09T01:25:15.842Z,6.97
2024-05-09T01:30:21.002Z,7.93
2024-05-09T01:35:24.730Z,6.65
2024-05-09T01:40:36.373Z,7.43
2024-05-09T01:45:39.401Z,6.03
2024-05-09T01:50:42.186Z,6.65
2024-05-09T01:55:46.092Z,6.77
2024-05-09T02:00:46.266Z,5.95
2024-05-09T02:05:47.463Z,5.15
2024-05-09T02:10:51.691Z,5.60
2024-05-09T02:15:52.562Z,5.77
2024-05-09T02:20:52.660Z,6.13
2024-05-09T02:25:55.462Z,5.63
2024-05-09T02:30:55.601Z,6.50
2024-05-09T02:35:55.728Z,6.32
2024-05-09T02:40:58.568Z,5.75
2024-05-09T02:45:58.693Z,6.35
2024-05-09T02:50:58.837Z,6.70
2024-05-09T02:56:01.673Z,6.68
2024-05-09T03:01:01.915Z,7.03
2024-05-09T03:06:02.059Z,7.00
2024-05-09T03:11:04.913Z,6.63
2024-05-09T03:16:05.024Z,5.93
2024-05-09T03:21:05.179Z,6.95
2024-05-09T03:26:12.487Z,7.05
2024-05-09T03:31:12.760Z,7.13
2024-05-09T03:36:12.808Z,6.30
2024-05-09T03:41:15.664Z,7.32
2024-05-09T03:46:15.773Z,7.45
2024-05-09T03:51:15.853Z,6.63
2024-05-09T03:56:18.684Z,6.32
2024-05-09T04:01:18.860Z,6.22
2024-05-09T04:06:22.899Z,6.50
2024-05-09T04:11:25.711Z,5.75
2024-05-09T04:16:25.852Z,6.15
2024-05-09T04:21:25.893Z,5.45
2024-05-09T04:26:28.840Z,5.80
2024-05-09T04:31:29.591Z,5.70
2024-05-09T04:36:29.650Z,5.72
2024-05-09T04:41:32.935Z,6.65
2024-05-09T04:46:32.986Z,6.30
2024-05-09T04:51:33.056Z,6.00
2024-05-09T04:56:35.904Z,6.53
2024-05-09T05:01:36.126Z,6.05
2024-05-09T05:06:36.253Z,5.75
2024-05-09T05:11:39.073Z,4.85
2024-05-09T05:16:39.203Z,5.43
2024-05-09T05:21:39.314Z,5.75
2024-05-09T05:26:42.045Z,5.88
2024-05-09T05:31:43.067Z,6.93
2024-05-09T05:36:43.187Z,6.53
2024-05-09T05:41:45.939Z,6.03
2024-05-09T05:46:46.002Z,6.03
2024-05-09T05:51:46.216Z,5.53
2024-05-09T05:56:48.927Z,4.93
2024-05-09T06:01:49.161Z,4.60
2024-05-09T06:06:49.286Z,5.00
2024-05-09T06:11:52.217Z,4.65
2024-05-09T06:16:54.067Z,4.60
2024-05-09T06:21:55.398Z,4.72
2024-05-09T06:26:58.084Z,4.68
2024-05-09T06:32:00.256Z,4.88
2024-05-09T06:37:00.583Z,4.55
2024-05-09T06:42:04.123Z,4.43
2024-05-09T06:47:04.334Z,5.30
2024-05-09T06:52:04.496Z,5.22
2024-05-09T06:57:07.532Z,4.88
2024-05-09T07:02:07.805Z,5.10
2024-05-09T07:07:09.431Z,4.93
2024-05-09T07:12:12.335Z,5.10
2024-05-09T07:17:12.540Z,4.15
2024-05-09T07:22:12.679Z,4.13
2024-05-09T07:27:15.566Z,4.20
2024-05-09T07:32:15.793Z,3.88
2024-05-09T07:37:15.977Z,4.10
2024-05-09T07:42:18.763Z,3.67
2024-05-09T07:48:29.043Z,4.05
2024-05-09T07:53:34.203Z,3.80
2024-05-09T07:58:03.788Z,4.32
2024-05-09T08:03:03.899Z,5.18
2024-05-09T08:08:03.968Z,5.07
2024-05-09T08:13:06.925Z,5.53
2024-05-09T08:18:10.356Z,5.80
2024-05-09T08:23:10.547Z,5.00
2024-05-09T08:28:13.701Z,4.82
2024-05-09T08:33:13.985Z,4.75
2024-05-09T08:38:14.268Z,6.03
2024-05-09T08:43:19.531Z,5.25
2024-05-09T08:48:20.885Z,4.43
2024-05-09T08:53:21.379Z,4.68
2024-05-09T08:58:24.187Z,4.50
2024-05-09T09:03:27.570Z,5.68
2024-05-09T09:08:28.752Z,6.18
2024-05-09T09:13:31.713Z,4.68
2024-05-09T09:18:33.306Z,4.22
2024-05-09T09:23:34.083Z,4.93
2024-05-09T09:28:40.702Z,4.28
2024-05-09T09:33:44.692Z,4.60
2024-05-09T09:38:45.079Z,4.57
2024-05-09T09:43:48.236Z,4.30
2024-05-09T09:48:49.235Z,4.22
2024-05-09T09:53:50.286Z,4.03
2024-05-09T09:58:53.923Z,3.88
2024-05-09T10:03:54.601Z,5.00
2024-05-09T10:08:54.817Z,4.75
2024-05-09T10:13:59.447Z,4.40
2024-05-09T10:23:59.645Z,5.43
2024-05-09T10:29:03.459Z,5.18
2024-05-09T10:34:05.431Z,5.68
2024-05-09T10:39:06.302Z,5.10
2024-05-09T10:44:13.297Z,4.72
2024-05-09T10:49:13.683Z,5.10
2024-05-09T10:54:13.820Z,5.50
2024-05-09T10:59:16.654Z,4.43
2024-05-09T11:04:17.211Z,7.32
2024-05-09T11:09:17.592Z,4.43
2024-05-09T11:14:20.332Z,4.47
2024-05-09T11:19:20.634Z,3.83
2024-05-09T11:24:20.774Z,4.30
2024-05-09T11:29:23.588Z,4.43
2024-05-09T11:34:23.869Z,4.40
2024-05-09T11:39:24.009Z,4.18
2024-05-09T11:44:26.753Z,4.13
2024-05-09T11:49:27.191Z,4.32
2024-05-09T11:54:27.552Z,4.40
2024-05-09T11:59:30.361Z,4.00
2024-05-09T12:04:30.563Z,4.85
2024-05-09T12:09:30.770Z,4.78
2024-05-09T12:14:33.555Z,4.53
2024-05-09T12:19:33.760Z,4.55
2024-05-09T12:24:33.954Z,5.43
2024-05-09T12:29:38.813Z,4.10
2024-05-09T12:34:39.219Z,4.38
2024-05-09T12:39:39.327Z,4.00
2024-05-09T12:44:42.067Z,3.65
2024-05-09T12:49:42.223Z,4.22
2024-05-09T12:54:42.339Z,3.92
2024-05-09T12:59:45.274Z,4.30
2024-05-09T13:04:45.565Z,3.97
2024-05-09T13:09:45.759Z,4.15
2024-05-09T13:14:48.455Z,4.30
2024-05-09T13:19:48.595Z,4.38
2024-05-09T13:24:48.647Z,4.78
2024-05-09T13:29:51.391Z,4.13
2024-05-09T13:34:51.558Z,4.85
2024-05-09T13:39:51.759Z,4.85
2024-05-09T13:44:54.605Z,8.85
2024-05-09T13:49:54.810Z,4.63
2024-05-09T13:54:55.057Z,3.33
2024-05-09T13:59:57.806Z,3.40
2024-05-09T14:04:57.997Z,3.30
2024-05-09T14:09:58.684Z,3.30
2024-05-09T14:15:02.812Z,3.45
2024-05-09T14:20:03.077Z,3.58
2024-05-09T14:25:03.978Z,3.47
2024-05-09T14:30:14.924Z,3.58
2024-05-09T14:35:22.608Z,3.08
2024-05-09T14:40:35.795Z,3.38
2024-05-09T14:45:44.195Z,4.00
2024-05-09T14:50:44.398Z,3.65
2024-05-09T14:55:44.716Z,5.68
2024-05-09T15:00:51.162Z,5.05
2024-05-09T15:05:52.615Z,3.63
2024-05-09T15:10:53.212Z,4.00
2024-05-09T15:15:56.190Z,4.07
2024-05-09T15:20:56.437Z,3.95
2024-05-09T15:25:56.636Z,6.75
2024-05-09T15:30:59.389Z,5.68
2024-05-09T15:35:59.581Z,4.20
2024-05-09T15:40:59.752Z,4.55
2024-05-09T15:46:02.581Z,5.88
2024-05-09T15:51:02.775Z,5.88
2024-05-09T15:56:02.871Z,10.25
2024-05-09T16:01:05.682Z,6.75
2024-05-09T16:06:05.888Z,6.40
2024-05-09T16:11:06.348Z,4.45
2024-05-09T16:16:09.457Z,4.72
2024-05-09T16:21:09.586Z,5.07
2024-05-09T16:26:09.787Z,3.95
2024-05-09T16:31:12.623Z,4.72
2024-05-09T16:36:12.748Z,4.97
2024-05-09T16:41:13.391Z,5.40
2024-05-09T16:46:16.227Z,5.95
2024-05-09T16:51:16.386Z,6.63
2024-05-09T16:56:17.457Z,6.28
2024-05-09T17:01:20.336Z,6.10
2024-05-09T17:06:20.474Z,5.88
2024-05-09T17:11:20.663Z,7.32
2024-05-09T17:16:23.511Z,7.47
2024-05-09T17:21:23.708Z,8.52
2024-05-09T17:26:23.870Z,9.05
2024-05-09T17:31:26.727Z,10.48
2024-05-09T17:36:27.183Z,8.48
2024-05-09T17:41:27.211Z,7.30
2024-05-09T17:46:30.166Z,7.20
2024-05-09T17:51:30.399Z,7.18
2024-05-09T17:56:30.768Z,7.22
2024-05-09T18:01:33.870Z,7.35
2024-05-09T18:06:34.184Z,6.65
2024-05-09T18:11:34.395Z,7.30
2024-05-09T18:16:37.238Z,6.25
2024-05-09T18:21:37.583Z,5.22
2024-05-09T18:26:37.907Z,6.15
2024-05-09T18:31:40.823Z,7.07
2024-05-09T18:36:41.108Z,7.25
2024-05-09T18:41:41.351Z,5.38
2024-05-09T18:46:44.310Z,5.32
2024-05-09T18:51:44.604Z,7.80
2024-05-09T18:56:44.997Z,6.88
2024-05-09T19:01:47.910Z,5.85
2024-05-09T19:06:48.518Z,5.15
2024-05-09T19:11:48.762Z,5.97
2024-05-09T19:16:51.652Z,6.57
2024-05-09T19:21:52.091Z,8.65
2024-05-09T19:26:52.799Z,9.02
2024-05-09T19:31:55.809Z,6.53
2024-05-09T19:36:57.308Z,8.52
2024-05-09T19:41:57.588Z,6.00
2024-05-09T19:47:00.389Z,6.18
2024-05-09T19:52:00.721Z,5.50
2024-05-09T19:57:01.117Z,5.13
2024-05-09T20:02:04.410Z,5.22
2024-05-09T20:07:04.747Z,5.60
2024-05-09T20:12:04.871Z,5.97
2024-05-09T20:17:07.781Z,6.30
2024-05-09T20:22:09.164Z,6.38
2024-05-09T20:27:09.396Z,6.97
2024-05-09T20:32:12.301Z,6.03
2024-05-09T20:37:12.479Z,6.50
2024-05-09T20:42:12.675Z,5.60
2024-05-09T20:47:15.377Z,6.75
2024-05-09T20:52:15.687Z,6.90
2024-05-09T20:57:15.879Z,6.18
2024-05-09T21:02:18.840Z,5.82
2024-05-09T21:07:19.197Z,7.28
2024-05-09T21:12:20.671Z,6.95
2024-05-09T21:17:23.425Z,7.43
2024-05-09T21:22:23.522Z,6.70
2024-05-09T21:27:24.641Z,7.60
2024-05-09T21:32:27.490Z,7.07
2024-05-09T21:37:27.751Z,7.10
2024-05-09T21:42:27.836Z,6.95
2024-05-09T21:47:30.657Z,7.55
2024-05-09T21:52:31.228Z,7.50
2024-05-09T21:57:31.316Z,6.90
2024-05-09T22:02:34.200Z,6.53
2024-05-09T22:07:34.324Z,6.97
2024-05-09T22:12:34.431Z,6.78
2024-05-09T22:17:37.265Z,6.88
2024-05-09T22:22:37.491Z,6.90
2024-05-09T22:27:37.605Z,6.63
2024-05-09T22:32:40.555Z,7.78
2024-05-09T22:37:40.737Z,7.45
2024-05-09T22:42:42.976Z,7.10
2024-05-09T22:47:46.085Z,7.03
2024-05-09T22:52:46.260Z,7.35
2024-05-09T22:57:46.369Z,8.13
2024-05-09T23:02:49.278Z,7.85
2024-05-09T23:07:49.456Z,7.65
2024-05-09T23:12:49.501Z,7.25
2024-05-09T23:17:52.406Z,7.35
2024-05-09T23:22:52.590Z,7.65
2024-05-09T23:27:52.685Z,8.40
2024-05-09T23:32:55.804Z,7.65
2024-05-09T23:37:55.863Z,8.23
2024-05-09T23:42:56.022Z,8.40
2024-05-09T23:47:58.953Z,7.72
2024-05-09T23:52:59.114Z,8.52
2024-05-09T23:57:59.362Z,9.00
